createdAt,value
2023-04-23T00:00:56.175Z,0.2020
2023-04-23T00:01:57.818Z,0.2036
2023-04-23T00:02:59.873Z,0.1342
2023-04-23T00:04:01.474Z,0.1226
2023-04-23T00:05:02.784Z,0.2323
2023-04-23T00:06:04.467Z,0.1943
2023-04-23T00:07:06.013Z,0.1513
2023-04-23T00:08:07.794Z,0.2383
2023-04-23T00:09:09.335Z,0.1822
2023-04-23T00:10:11.007Z,0.1651
2023-04-23T00:11:13.192Z,0.1792
2023-04-23T00:12:14.282Z,0.2175
2023-04-23T00:13:15.909Z,0.2340
2023-04-23T00:14:17.629Z,0.2257
2023-04-23T00:15:19.719Z,0.2215
2023-04-23T00:16:20.887Z,0.1380
2023-04-23T00:17:22.492Z,0.1957
2023-04-23T00:18:24.154Z,0.2784
2023-04-23T00:19:25.828Z,0.1691
2023-04-23T00:20:27.405Z,0.1606
2023-04-23T00:21:29.030Z,0.1840
2023-04-23T00:22:30.737Z,0.2884
2023-04-23T00:23:32.447Z,0.2196
2023-04-23T00:24:34.330Z,0.2739
2023-04-23T00:25:35.590Z,0.2432
2023-04-23T00:26:37.313Z,0.2399
2023-04-23T00:27:38.931Z,0.1932
2023-04-23T00:28:41.340Z,0.2201
2023-04-23T00:29:42.215Z,0.2452
2023-04-23T00:30:43.883Z,0.2113
2023-04-23T00:31:45.485Z,0.1520
2023-04-23T00:32:47.330Z,0.1622
2023-04-23T00:33:48.736Z,0.1746
2023-04-23T00:34:50.770Z,0.1685
2023-04-23T00:35:52.018Z,0.2406
2023-04-23T00:36:53.733Z,0.2399
2023-04-23T00:37:55.290Z,0.2059
2023-04-23T00:38:57.027Z,0.1746
2023-04-23T00:39:58.764Z,0.1826
2023-04-23T00:41:00.353Z,0.1344
2023-04-23T00:42:01.878Z,0.1840
2023-04-23T00:43:03.568Z,0.1710
2023-04-23T00:44:05.325Z,0.1579
2023-04-23T00:45:06.861Z,0.1985
2023-04-23T00:46:09.314Z,0.1752
2023-04-23T00:47:10.072Z,0.1301
2023-04-23T00:48:11.805Z,0.1566
2023-04-23T00:49:14.323Z,0.1188
2023-04-23T00:50:15.163Z,0.2192
2023-04-23T00:51:17.370Z,0.2203
2023-04-23T00:52:18.359Z,0.1726
2023-04-23T00:53:19.982Z,0.2516
2023-04-23T00:54:21.570Z,0.2044
2023-04-23T00:55:23.331Z,0.1431
2023-04-23T00:56:24.960Z,0.2230
2023-04-23T00:57:26.594Z,0.1705
2023-04-23T00:58:28.140Z,0.1785
2023-04-23T00:59:29.817Z,0.1775
2023-04-23T01:00:32.319Z,0.1963
2023-04-23T01:01:33.251Z,0.1798
2023-04-23T01:02:34.812Z,0.1638
2023-04-23T01:03:36.682Z,0.3294
2023-04-23T01:04:38.177Z,0.1344
2023-04-23T01:05:39.853Z,0.1719
2023-04-23T01:06:41.472Z,0.2382
2023-04-23T01:07:43.079Z,0.1868
2023-04-23T01:08:44.727Z,0.1248
2023-04-23T01:09:46.396Z,0.0819
2023-04-23T01:10:48.102Z,0.1549
2023-04-23T01:11:49.755Z,0.1760
2023-04-23T01:12:51.277Z,0.2074
2023-04-23T01:13:52.991Z,0.1793
2023-04-23T01:14:54.538Z,0.1379
2023-04-23T01:15:56.268Z,0.1495
2023-04-23T01:16:58.874Z,0.1241
2023-04-23T01:17:59.593Z,0.0869
2023-04-23T01:19:01.084Z,0.1713
2023-04-23T01:20:02.746Z,0.0938
2023-04-23T01:21:04.467Z,0.1341
2023-04-23T01:22:06.139Z,0.1426
2023-04-23T01:23:07.763Z,0.2717
2023-04-23T01:24:09.367Z,0.1629
2023-04-23T01:25:10.977Z,0.1627
2023-04-23T01:26:13.592Z,0.1645
2023-04-23T01:27:14.341Z,0.1457
2023-04-23T01:28:15.956Z,0.1508
2023-04-23T01:29:17.599Z,0.0603
2023-04-23T01:30:19.232Z,0.1586
2023-04-23T01:31:20.966Z,0.2021
2023-04-23T01:32:22.647Z,0.1785
2023-04-23T01:33:24.118Z,0.1476
2023-04-23T01:34:26.778Z,0.1812
2023-04-23T01:35:27.343Z,0.1559
2023-04-23T01:36:29.359Z,0.1807
2023-04-23T01:37:30.818Z,0.0977
2023-04-23T01:38:33.295Z,0.0858
2023-04-23T01:39:33.996Z,0.1439
2023-04-23T01:40:36.014Z,0.0771
2023-04-23T01:41:37.237Z,0.1694
2023-04-23T01:42:38.944Z,0.1408
2023-04-23T01:43:40.558Z,0.1215
2023-04-23T01:44:42.568Z,0.0725
2023-04-23T01:45:43.914Z,0.2567
2023-04-23T01:46:45.432Z,0.1966
2023-04-23T01:47:47.224Z,0.1077
2023-04-23T01:48:48.762Z,0.1082
2023-04-23T01:49:50.397Z,0.1471
2023-04-23T01:50:52.141Z,0.1232
2023-04-23T01:51:53.672Z,0.1687
2023-04-23T01:52:55.406Z,0.1965
2023-04-23T01:53:56.918Z,0.2318
2023-04-23T01:54:59.038Z,0.0834
2023-04-23T01:56:00.236Z,0.0935
2023-04-23T01:57:01.880Z,0.2558
2023-04-23T01:58:03.505Z,0.2068
2023-04-23T01:59:06.466Z,0.1929
2023-04-23T02:00:06.760Z,0.0978
2023-04-23T02:01:09.492Z,0.1466
2023-04-23T02:02:10.069Z,0.1637
2023-04-23T02:03:11.892Z,0.1390
2023-04-23T02:04:13.380Z,0.1408
2023-04-23T02:05:15.181Z,0.1803
2023-04-23T02:06:16.613Z,0.1162
2023-04-23T02:07:18.286Z,0.1338
2023-04-23T02:08:19.938Z,0.1538
2023-04-23T02:09:22.649Z,0.0845
2023-04-23T02:10:23.163Z,0.0922
2023-04-23T02:11:25.096Z,0.1372
2023-04-23T02:12:26.584Z,0.1251
2023-04-23T02:13:28.514Z,0.1003
2023-04-23T02:14:29.756Z,0.1214
2023-04-23T02:15:31.487Z,0.1666
2023-04-23T02:16:33.136Z,0.1862
2023-04-23T02:17:34.784Z,0.1488
2023-04-23T02:18:36.366Z,0.2422
2023-04-23T02:19:38.083Z,0.3885
2023-04-23T02:20:39.666Z,0.1155
2023-04-23T02:21:41.422Z,0.1199
2023-04-23T02:22:43.882Z,0.1586
2023-04-23T02:23:44.664Z,0.1765
2023-04-23T02:24:46.306Z,0.1406
2023-04-23T02:25:48.004Z,0.2883
2023-04-23T02:26:49.549Z,0.0735
2023-04-23T02:27:51.218Z,0.1056
2023-04-23T02:28:53.010Z,0.1007
2023-04-23T02:29:54.499Z,0.1099
2023-04-23T02:30:56.090Z,0.1334
2023-04-23T02:31:57.930Z,0.1649
2023-04-23T02:32:59.437Z,0.0787
2023-04-23T02:34:01.029Z,0.1581
2023-04-23T02:35:02.645Z,0.1150
2023-04-23T02:36:04.308Z,0.1299
2023-04-23T02:37:06.957Z,0.0890
2023-04-23T02:38:07.521Z,0.1291
2023-04-23T02:39:09.102Z,0.1704
2023-04-23T02:40:10.907Z,0.1123
2023-04-23T02:41:12.928Z,0.1179
2023-04-23T02:42:14.204Z,0.1655
2023-04-23T02:43:15.783Z,0.1674
2023-04-23T02:44:17.426Z,0.0901
2023-04-23T02:45:19.088Z,0.1139
2023-04-23T02:46:20.780Z,0.1438
2023-04-23T02:47:22.447Z,0.1435
2023-04-23T02:48:24.031Z,0.1892
2023-04-23T02:49:25.650Z,0.1757
2023-04-23T02:50:27.305Z,0.1366
2023-04-23T02:51:29.509Z,0.1214
2023-04-23T02:52:30.579Z,0.1391
2023-04-23T02:53:32.217Z,0.1207
2023-04-23T02:54:33.829Z,0.2025
2023-04-23T02:55:35.500Z,0.1282
2023-04-23T02:56:37.144Z,0.1662
2023-04-23T02:57:38.932Z,0.1252
2023-04-23T02:58:40.392Z,0.0893
2023-04-23T02:59:42.118Z,0.1245
2023-04-23T03:00:43.725Z,0.0948
2023-04-23T03:01:45.394Z,0.2148
2023-04-23T03:02:47.126Z,0.1063
2023-04-23T03:03:48.869Z,0.1272
2023-04-23T03:04:50.256Z,0.1092
2023-04-23T03:05:51.926Z,0.0880
2023-04-23T03:06:53.639Z,0.2132
2023-04-23T03:07:55.936Z,0.2127
2023-04-23T03:08:56.812Z,0.1383
2023-04-23T03:09:58.539Z,0.1127
2023-04-23T03:11:00.167Z,0.1734
2023-04-23T03:12:02.486Z,0.1439
2023-04-23T03:13:03.454Z,0.2347
2023-04-23T03:14:05.140Z,0.1430
2023-04-23T03:15:06.706Z,0.1611
2023-04-23T03:16:08.934Z,0.1186
2023-04-23T03:17:10.060Z,0.0939
2023-04-23T03:18:11.716Z,0.2167
2023-04-23T03:19:13.345Z,0.1492
2023-04-23T03:20:15.914Z,0.1524
2023-04-23T03:21:16.557Z,0.1800
2023-04-23T03:22:18.307Z,0.1292
2023-04-23T03:23:19.926Z,0.1442
2023-04-23T03:24:21.559Z,0.1520
2023-04-23T03:25:23.117Z,0.1322
2023-04-23T03:26:24.828Z,0.1525
2023-04-23T03:27:26.481Z,0.2544
2023-04-23T03:28:28.162Z,0.1260
2023-04-23T03:29:29.707Z,0.1443
2023-04-23T03:30:31.381Z,0.1810
2023-04-23T03:31:32.975Z,0.1409
2023-04-23T03:32:34.714Z,0.2511
2023-04-23T03:33:36.341Z,0.1930
2023-04-23T03:34:37.952Z,0.1811
2023-04-23T03:35:39.594Z,0.1856
2023-04-23T03:36:41.204Z,0.1777
2023-04-23T03:37:42.907Z,0.1749
2023-04-23T03:38:44.596Z,0.1736
2023-04-23T03:39:46.147Z,0.1999
2023-04-23T03:40:47.843Z,0.1225
2023-04-23T03:41:49.418Z,0.1581
2023-04-23T03:42:51.169Z,0.0944
2023-04-23T03:43:53.430Z,0.1212
2023-04-23T03:44:54.371Z,0.1902
2023-04-23T03:45:56.104Z,0.1304
2023-04-23T03:46:58.402Z,0.1570
2023-04-23T03:47:59.428Z,0.1644
2023-04-23T03:49:01.454Z,0.2023
2023-04-23T03:50:02.604Z,0.1796
2023-04-23T03:51:04.229Z,0.2222
2023-04-23T03:52:05.908Z,0.1554
2023-04-23T03:53:07.596Z,0.1997
2023-04-23T03:54:09.128Z,0.1958
2023-04-23T03:55:10.787Z,0.1614
2023-04-23T03:56:12.397Z,0.1002
2023-04-23T03:57:14.016Z,0.1039
2023-04-23T03:58:15.700Z,0.1663
2023-04-23T03:59:17.333Z,0.1452
2023-04-23T04:00:19.032Z,0.1415
2023-04-23T04:01:20.594Z,0.1653
2023-04-23T04:02:22.408Z,0.1152
2023-04-23T04:03:25.185Z,0.0738
2023-04-23T04:04:25.832Z,0.1350
2023-04-23T04:05:27.309Z,0.1212
2023-04-23T04:06:28.914Z,0.1038
2023-04-23T04:07:30.464Z,0.0872
2023-04-23T04:08:32.133Z,0.1836
2023-04-23T04:09:33.764Z,0.1656
2023-04-23T04:10:35.932Z,0.1159
2023-04-23T04:11:37.410Z,0.1218
2023-04-23T04:12:38.739Z,0.1141
2023-04-23T04:13:40.370Z,0.0894
2023-04-23T04:14:42.301Z,0.0686
2023-04-23T04:15:44.459Z,0.1263
2023-04-23T04:16:45.368Z,0.0670
2023-04-23T04:17:47.017Z,0.1162
2023-04-23T04:18:48.724Z,0.1586
2023-04-23T04:19:50.606Z,0.1499
2023-04-23T04:20:52.031Z,0.1258
2023-04-23T04:21:53.630Z,0.0885
2023-04-23T04:22:55.295Z,0.1541
2023-04-23T04:23:57.980Z,0.1457
2023-04-23T04:24:58.454Z,0.1025
2023-04-23T04:26:00.203Z,0.1200
2023-04-23T04:27:01.869Z,0.0890
2023-04-23T04:28:03.554Z,0.0614
2023-04-23T04:29:05.126Z,0.1210
2023-04-23T04:30:06.880Z,0.1241
2023-04-23T04:31:08.505Z,0.0829
2023-04-23T04:32:10.098Z,0.0856
2023-04-23T04:33:11.770Z,0.0888
2023-04-23T04:34:13.449Z,0.1190
2023-04-23T04:35:14.968Z,0.1105
2023-04-23T04:36:16.703Z,0.0667
2023-04-23T04:37:18.279Z,0.0706
2023-04-23T04:38:19.960Z,0.1401
2023-04-23T04:39:21.583Z,0.0928
2023-04-23T04:40:23.278Z,0.0545
2023-04-23T04:41:24.920Z,0.1442
2023-04-23T04:42:26.534Z,0.1630
2023-04-23T04:43:28.227Z,0.1062
2023-04-23T04:44:29.796Z,0.1446
2023-04-23T04:45:31.509Z,0.1505
2023-04-23T04:46:33.131Z,0.0976
2023-04-23T04:47:34.776Z,0.1442
2023-04-23T04:48:37.377Z,0.0950
2023-04-23T04:49:38.089Z,0.1084
2023-04-23T04:50:39.680Z,0.0981
2023-04-23T04:51:41.293Z,0.1549
2023-04-23T04:52:42.983Z,0.1968
2023-04-23T04:53:44.589Z,0.1898
2023-04-23T04:54:46.226Z,0.1481
2023-04-23T04:55:47.907Z,0.1146
2023-04-23T04:56:49.627Z,0.1006
2023-04-23T04:57:52.200Z,0.1374
2023-04-23T04:58:53.776Z,0.1853
2023-04-23T04:59:55.350Z,0.1290
2023-04-23T05:00:56.098Z,0.1605
2023-04-23T05:01:57.793Z,0.1061
2023-04-23T05:02:59.535Z,0.1619
2023-04-23T05:04:01.109Z,0.0911
2023-04-23T05:05:02.619Z,0.1102
2023-04-23T05:06:04.302Z,0.1571
2023-04-23T05:07:05.925Z,0.1549
2023-04-23T05:08:07.574Z,0.0872
2023-04-23T05:09:09.173Z,0.1527
2023-04-23T05:10:10.931Z,0.1782
2023-04-23T05:11:12.498Z,0.1639
2023-04-23T05:12:14.238Z,0.1452
2023-04-23T05:13:15.855Z,0.1157
2023-04-23T05:14:17.459Z,0.1409
2023-04-23T05:15:19.108Z,0.1322
2023-04-23T05:16:20.871Z,0.1410
2023-04-23T05:17:23.075Z,0.1623
2023-04-23T05:18:24.120Z,0.2278
2023-04-23T05:19:25.647Z,0.1471
2023-04-23T05:20:27.352Z,0.0899
2023-04-23T05:21:29.022Z,0.0985
2023-04-23T05:22:30.670Z,0.1650
2023-04-23T05:23:32.213Z,0.0854
2023-04-23T05:24:33.948Z,0.0933
2023-04-23T05:25:35.580Z,0.1006
2023-04-23T05:26:37.267Z,0.0854
2023-04-23T05:27:38.893Z,0.0754
2023-04-23T05:28:40.517Z,0.0887
2023-04-23T05:29:42.118Z,0.1602
2023-04-23T05:30:43.804Z,0.1100
2023-04-23T05:31:45.498Z,0.1182
2023-04-23T05:32:47.198Z,0.1476
2023-04-23T05:33:50.504Z,0.1282
2023-04-23T05:34:50.372Z,0.1512
2023-04-23T05:35:52.019Z,0.1758
2023-04-23T05:36:53.772Z,0.1465
2023-04-23T05:37:55.373Z,0.1190
2023-04-23T05:38:56.996Z,0.1800
2023-04-23T05:39:58.577Z,0.0744
2023-04-23T05:41:00.291Z,0.1262
2023-04-23T05:42:02.405Z,0.0671
2023-04-23T05:43:03.579Z,0.1124
2023-04-23T05:44:05.185Z,0.1716
2023-04-23T05:45:08.864Z,0.1499
2023-04-23T05:46:08.512Z,0.1365
2023-04-23T05:47:10.203Z,0.1401
2023-04-23T05:48:11.843Z,0.1239
2023-04-23T05:49:13.468Z,0.1217
2023-04-23T05:50:15.092Z,0.0891
2023-04-23T05:51:16.788Z,0.0903
2023-04-23T05:52:18.434Z,0.1093
2023-04-23T05:53:20.162Z,0.1479
2023-04-23T05:54:21.653Z,0.0956
2023-04-23T05:55:23.338Z,0.1147
2023-04-23T05:56:25.058Z,0.1921
2023-04-23T05:57:27.525Z,0.1055
2023-04-23T05:58:28.346Z,0.1697
2023-04-23T05:59:29.978Z,0.1038
2023-04-23T06:00:31.630Z,0.1308
2023-04-23T06:01:33.205Z,0.1625
2023-04-23T06:02:35.042Z,0.0875
2023-04-23T06:03:36.793Z,0.1784
2023-04-23T06:04:38.361Z,0.0998
2023-04-23T06:05:39.835Z,0.1736
2023-04-23T06:06:41.484Z,0.1257
2023-04-23T06:07:43.180Z,0.1097
2023-04-23T06:08:45.063Z,0.1195
2023-04-23T06:09:46.401Z,0.1266
2023-04-23T06:10:48.108Z,0.0860
2023-04-23T06:11:49.683Z,0.0935
2023-04-23T06:12:51.592Z,0.1585
2023-04-23T06:13:53.060Z,0.1105
2023-04-23T06:14:54.689Z,0.2004
2023-04-23T06:15:56.319Z,0.2443
2023-04-23T06:16:57.981Z,0.1143
2023-04-23T06:17:59.666Z,0.1203
2023-04-23T06:19:01.588Z,0.1801
2023-04-23T06:20:02.904Z,0.1813
2023-04-23T06:21:04.566Z,0.0841
2023-04-23T06:22:06.164Z,0.1261
2023-04-23T06:23:07.866Z,0.1493
2023-04-23T06:24:09.504Z,0.1818
2023-04-23T06:25:11.180Z,0.1080
2023-04-23T06:26:12.722Z,0.0701
2023-04-23T06:27:14.421Z,0.1329
2023-04-23T06:28:16.163Z,0.0654
2023-04-23T06:29:17.758Z,0.1456
2023-04-23T06:30:19.374Z,0.1150
2023-04-23T06:31:21.061Z,0.1719
2023-04-23T06:32:22.630Z,0.1093
2023-04-23T06:33:24.284Z,0.1077
2023-04-23T06:34:26.131Z,0.0927
2023-04-23T06:35:27.635Z,0.1085
2023-04-23T06:36:29.166Z,0.0858
2023-04-23T06:37:31.029Z,0.1148
2023-04-23T06:38:32.428Z,0.1333
2023-04-23T06:39:34.183Z,0.0970
2023-04-23T06:40:35.718Z,0.1002
2023-04-23T06:41:37.337Z,0.1621
2023-04-23T06:42:40.096Z,0.1335
2023-04-23T06:43:40.887Z,0.0912
2023-04-23T06:44:42.675Z,0.0821
2023-04-23T06:45:44.232Z,0.1063
2023-04-23T06:46:45.826Z,0.1681
2023-04-23T06:47:48.212Z,0.0727
2023-04-23T06:48:48.999Z,0.0877
2023-04-23T06:49:50.736Z,0.1373
2023-04-23T06:50:52.379Z,0.1140
2023-04-23T06:51:56.975Z,0.1035
2023-04-23T06:52:55.476Z,0.1116
2023-04-23T06:53:57.193Z,0.1406
2023-04-23T06:54:59.862Z,0.1278
2023-04-23T06:56:00.461Z,0.1045
2023-04-23T06:57:02.179Z,0.0686
2023-04-23T06:58:03.753Z,0.1057
2023-04-23T06:59:05.356Z,0.9187
2023-04-23T07:00:07.109Z,1.6289
2023-04-23T07:01:08.701Z,1.7864
2023-04-23T07:02:10.369Z,1.3100
2023-04-23T07:03:11.997Z,0.7429
2023-04-23T07:04:13.669Z,0.5809
2023-04-23T07:05:15.272Z,0.6368
2023-04-23T07:06:18.603Z,0.3491
2023-04-23T07:07:18.508Z,0.1713
2023-04-23T07:08:20.205Z,0.1568
2023-04-23T07:09:21.818Z,0.2521
2023-04-23T07:10:23.560Z,0.2420
2023-04-23T07:11:25.142Z,0.2785
2023-04-23T07:12:26.830Z,0.2421
2023-04-23T07:13:28.442Z,1.1780
2023-04-23T07:14:30.087Z,1.7805
2023-04-23T07:15:31.845Z,1.4176
2023-04-23T07:16:33.480Z,0.8390
2023-04-23T07:17:34.992Z,0.4743
2023-04-23T07:18:36.657Z,0.5317
2023-04-23T07:19:38.288Z,0.2834
2023-04-23T07:20:39.989Z,0.3533
2023-04-23T07:21:41.578Z,0.2490
2023-04-23T07:22:43.232Z,0.2989
2023-04-23T07:23:44.865Z,0.2332
2023-04-23T07:24:46.522Z,0.2157
2023-04-23T07:25:48.183Z,0.2211
2023-04-23T07:26:49.858Z,1.9758
2023-04-23T07:27:51.401Z,1.8793
2023-04-23T07:28:53.183Z,1.4198
2023-04-23T07:29:54.704Z,0.8549
2023-04-23T07:30:56.454Z,0.6229
2023-04-23T07:31:58.077Z,0.5243
2023-04-23T07:32:59.718Z,0.3300
2023-04-23T07:34:01.392Z,0.3052
2023-04-23T07:35:02.975Z,0.3407
2023-04-23T07:36:04.598Z,0.2601
2023-04-23T07:37:06.316Z,1.6298
2023-04-23T07:38:07.860Z,1.9818
2023-04-23T07:39:09.545Z,1.9191
2023-04-23T07:40:11.189Z,1.2556
2023-04-23T07:41:12.914Z,0.8934
2023-04-23T07:42:15.068Z,0.6549
2023-04-23T07:43:16.142Z,0.8362
2023-04-23T07:44:17.761Z,0.4031
2023-04-23T07:45:19.500Z,0.4169
2023-04-23T07:46:21.146Z,0.2795
2023-04-23T07:47:23.002Z,0.3255
2023-04-23T07:48:24.413Z,0.3618
2023-04-23T07:49:26.021Z,2.0110
2023-04-23T07:50:27.637Z,1.8103
2023-04-23T07:51:29.351Z,1.0583
2023-04-23T07:52:30.957Z,0.7605
2023-04-23T07:53:32.577Z,0.5559
2023-04-23T07:54:34.207Z,0.5336
2023-04-23T07:55:35.917Z,0.3809
2023-04-23T07:56:37.597Z,0.2986
2023-04-23T07:57:39.241Z,0.2229
2023-04-23T07:58:40.815Z,0.2674
2023-04-23T07:59:42.863Z,0.2149
2023-04-23T08:00:44.088Z,0.2035
2023-04-23T08:01:45.820Z,0.1999
2023-04-23T08:02:47.614Z,0.1567
2023-04-23T08:03:49.440Z,0.1438
2023-04-23T08:04:50.827Z,0.1384
2023-04-23T08:05:52.336Z,0.1755
2023-04-23T08:06:54.045Z,0.2217
2023-04-23T08:07:55.645Z,0.1036
2023-04-23T08:08:57.308Z,0.1487
2023-04-23T08:09:58.900Z,0.0942
2023-04-23T08:11:00.547Z,0.1502
2023-04-23T08:12:02.236Z,0.0861
2023-04-23T08:13:03.902Z,0.1069
2023-04-23T08:14:05.496Z,0.1347
2023-04-23T08:15:07.220Z,0.0902
2023-04-23T08:16:08.790Z,0.1180
2023-04-23T08:17:10.463Z,0.1434
2023-04-23T08:18:12.107Z,0.0815
2023-04-23T08:19:13.706Z,0.0953
2023-04-23T08:20:15.302Z,0.1658
2023-04-23T08:21:17.031Z,0.0659
2023-04-23T08:22:20.293Z,0.0907
2023-04-23T08:23:20.353Z,0.1479
2023-04-23T08:24:22.456Z,0.0852
2023-04-23T08:25:23.603Z,0.0599
2023-04-23T08:26:25.214Z,0.0912
2023-04-23T08:27:26.971Z,0.0587
2023-04-23T08:28:28.593Z,0.1127
2023-04-23T08:29:30.208Z,0.0678
2023-04-23T08:30:31.789Z,0.0976
2023-04-23T08:31:33.509Z,0.0537
2023-04-23T08:32:35.158Z,0.0705
2023-04-23T08:33:36.875Z,0.0618
2023-04-23T08:34:38.442Z,0.0937
2023-04-23T08:35:40.078Z,0.0933
2023-04-23T08:36:41.649Z,0.0719
2023-04-23T08:37:43.444Z,0.0345
2023-04-23T08:38:44.989Z,0.0697
2023-04-23T08:39:46.686Z,0.0571
2023-04-23T08:40:48.227Z,0.1041
2023-04-23T08:41:49.926Z,0.0914
2023-04-23T08:42:51.644Z,0.0923
2023-04-23T08:43:53.238Z,0.1043
2023-04-23T08:44:54.801Z,0.1040
2023-04-23T08:45:56.510Z,0.0660
2023-04-23T08:46:58.248Z,0.0796
2023-04-23T08:48:02.134Z,0.0775
2023-04-23T08:49:01.452Z,0.1046
2023-04-23T08:50:03.074Z,0.0889
2023-04-23T08:51:04.690Z,0.0768
2023-04-23T08:52:06.380Z,0.5182
2023-04-23T08:53:08.065Z,1.4212
2023-04-23T08:54:09.679Z,1.4931
2023-04-23T08:55:11.255Z,1.2844
2023-04-23T08:56:12.940Z,1.5620
2023-04-23T08:57:14.574Z,1.4855
2023-04-23T08:58:16.279Z,1.0302
2023-04-23T08:59:17.911Z,0.8097
2023-04-23T09:00:19.455Z,0.6802
2023-04-23T09:01:21.297Z,0.4926
2023-04-23T09:02:22.986Z,0.3821
2023-04-23T09:03:24.547Z,0.2828
2023-04-23T09:04:26.164Z,0.2233
2023-04-23T09:05:27.710Z,0.2725
2023-04-23T09:06:29.422Z,0.1868
2023-04-23T09:07:31.023Z,0.1464
2023-04-23T09:08:32.753Z,0.2035
2023-04-23T09:09:34.641Z,0.1672
2023-04-23T09:10:35.974Z,0.1269
2023-04-23T09:11:37.577Z,0.0982
2023-04-23T09:12:39.276Z,0.1325
2023-04-23T09:13:40.950Z,0.1711
2023-04-23T09:14:42.852Z,0.1146
2023-04-23T09:15:44.169Z,0.2145
2023-04-23T09:16:45.922Z,0.1344
2023-04-23T09:17:47.529Z,0.1084
2023-04-23T09:18:49.194Z,0.0839
2023-04-23T09:19:50.858Z,0.1155
2023-04-23T09:20:52.528Z,0.1325
2023-04-23T09:21:54.046Z,0.0959
2023-04-23T09:22:55.727Z,0.0599
2023-04-23T09:23:57.449Z,0.1063
2023-04-23T09:24:59.090Z,0.1159
2023-04-23T09:26:00.627Z,0.0572
2023-04-23T09:27:02.267Z,0.1227
2023-04-23T09:28:03.958Z,0.0685
2023-04-23T09:29:05.609Z,0.1475
2023-04-23T09:30:07.294Z,0.0839
2023-04-23T09:31:08.879Z,0.1641
2023-04-23T09:32:10.586Z,0.0642
2023-04-23T09:33:12.151Z,0.1061
2023-04-23T09:34:14.206Z,0.1203
2023-04-23T09:35:15.554Z,0.0749
2023-04-23T09:36:17.233Z,0.0948
2023-04-23T09:37:18.783Z,0.1225
2023-04-23T09:38:20.428Z,0.0797
2023-04-23T09:39:22.065Z,0.0608
2023-04-23T09:40:23.749Z,0.0644
2023-04-23T09:41:25.304Z,0.1484
2023-04-23T09:42:26.986Z,0.1003
2023-04-23T09:43:28.575Z,0.1538
2023-04-23T09:44:30.353Z,0.1601
2023-04-23T09:45:31.945Z,0.1247
2023-04-23T09:46:33.562Z,0.1831
2023-04-23T09:47:35.252Z,0.1113
2023-04-23T09:48:36.879Z,0.1606
2023-04-23T09:49:38.534Z,0.1175
2023-04-23T09:50:40.245Z,0.1221
2023-04-23T09:51:41.769Z,0.1108
2023-04-23T09:52:43.431Z,0.0702
2023-04-23T09:53:45.056Z,0.8123
2023-04-23T09:54:47.214Z,1.5642
2023-04-23T09:55:48.397Z,1.6357
2023-04-23T09:56:50.076Z,1.5608
2023-04-23T09:57:51.611Z,1.3232
2023-04-23T09:58:53.366Z,1.3195
2023-04-23T10:00:03.754Z,0.7253
2023-04-23T10:00:56.638Z,0.5368
2023-04-23T10:01:58.289Z,0.4586
2023-04-23T10:03:00.168Z,0.5635
2023-04-23T10:04:01.694Z,0.4079
2023-04-23T10:05:21.468Z,0.2288
2023-04-23T10:06:05.264Z,0.3251
2023-04-23T10:07:17.923Z,0.2824
2023-04-23T10:08:08.232Z,0.2209
2023-04-23T10:09:09.704Z,0.1314
2023-04-23T10:10:11.463Z,0.1206
2023-04-23T10:11:20.734Z,0.1532
2023-04-23T10:13:16.302Z,0.1762
2023-04-23T10:14:17.962Z,0.1056
2023-04-23T10:15:19.684Z,0.0565
2023-04-23T10:16:23.284Z,0.1138
2023-04-23T10:17:22.932Z,0.1344
2023-04-23T10:18:24.492Z,0.5781
2023-04-23T10:19:27.171Z,1.1591
2023-04-23T10:20:27.878Z,0.6689
2023-04-23T10:21:36.620Z,0.4501
2023-04-23T10:22:31.067Z,0.3924
2023-04-23T10:23:32.802Z,0.3954
2023-04-23T10:24:34.371Z,0.6794
2023-04-23T10:25:36.729Z,0.4181
2023-04-23T10:26:38.190Z,0.3745
2023-04-23T10:27:51.118Z,0.3791
2023-04-23T10:28:41.042Z,0.3653
2023-04-23T10:29:43.017Z,0.7003
2023-04-23T10:30:44.681Z,0.6105
2023-04-23T10:31:45.980Z,0.7415
2023-04-23T10:32:47.561Z,0.9620
2023-04-23T10:33:58.204Z,0.8499
2023-04-23T10:34:50.931Z,0.4631
2023-04-23T10:35:52.601Z,0.5145
2023-04-23T10:36:54.181Z,0.5928
2023-04-23T10:37:55.844Z,1.0800
2023-04-23T10:38:59.106Z,0.9665
2023-04-23T10:39:59.132Z,0.9628
2023-04-23T10:41:00.801Z,0.6454
2023-04-23T10:42:02.466Z,0.6016
2023-04-23T10:43:04.026Z,0.4954
2023-04-23T10:44:05.723Z,0.5447
2023-04-23T10:45:16.613Z,0.8737
2023-04-23T10:46:09.139Z,0.9350
2023-04-23T10:47:10.738Z,0.5688
2023-04-23T10:48:12.460Z,0.5298
2023-04-23T10:49:14.016Z,0.6711
2023-04-23T10:50:15.744Z,0.4361
2023-04-23T10:51:56.084Z,0.5173
2023-04-23T10:52:21.495Z,0.6547
2023-04-23T10:53:20.604Z,0.5876
2023-04-23T10:54:22.319Z,0.8243
2023-04-23T10:55:23.969Z,0.7025
2023-04-23T10:56:25.789Z,0.7052
2023-04-23T10:57:27.271Z,0.9521
2023-04-23T10:58:28.943Z,0.7622
2023-04-23T10:59:30.465Z,0.7959
2023-04-23T11:00:32.164Z,1.0215
2023-04-23T11:01:33.827Z,0.8632
2023-04-23T11:02:35.607Z,0.5800
2023-04-23T11:03:39.646Z,0.7010
2023-04-23T11:04:38.834Z,0.4984
2023-04-23T11:05:40.389Z,0.5037
2023-04-23T11:06:42.089Z,0.5142
2023-04-23T11:07:43.750Z,0.4295
2023-04-23T11:08:45.426Z,0.3104
2023-04-23T11:09:47.013Z,0.4463
2023-04-23T11:10:48.667Z,0.4547
2023-04-23T11:11:50.288Z,0.4649
2023-04-23T11:12:52.027Z,0.8404
2023-04-23T11:13:53.621Z,0.8387
2023-04-23T11:14:55.307Z,0.5885
2023-04-23T11:15:56.907Z,0.7217
2023-04-23T11:16:58.530Z,0.7014
2023-04-23T11:18:00.216Z,0.7279
2023-04-23T11:19:01.911Z,0.9115
2023-04-23T11:20:03.558Z,1.6758
2023-04-23T11:21:05.187Z,1.7789
2023-04-23T11:22:06.767Z,1.8135
2023-04-23T11:23:08.462Z,1.6086
2023-04-23T11:24:10.097Z,1.6114
2023-04-23T11:25:11.842Z,1.3992
2023-04-23T11:26:13.424Z,1.2437
2023-04-23T11:27:15.044Z,1.2609
2023-04-23T11:28:16.694Z,1.6940
2023-04-23T11:29:18.339Z,1.4846
2023-04-23T11:30:19.962Z,1.2898
2023-04-23T11:31:21.656Z,1.2920
2023-04-23T11:32:23.298Z,1.1864
2023-04-23T11:33:24.927Z,0.8633
2023-04-23T11:34:26.604Z,0.8221
2023-04-23T11:35:28.167Z,1.6804
2023-04-23T11:36:30.699Z,1.5347
2023-04-23T11:37:31.480Z,1.6702
2023-04-23T11:38:33.056Z,1.6625
2023-04-23T11:39:34.733Z,1.7801
2023-04-23T11:40:36.643Z,2.2799
2023-04-23T11:41:38.087Z,1.9513
2023-04-23T11:42:39.664Z,1.8303
2023-04-23T11:43:42.212Z,1.7141
2023-04-23T11:44:42.972Z,1.3736
2023-04-23T11:45:44.701Z,1.0934
2023-04-23T11:46:46.272Z,0.7373
2023-04-23T11:47:47.962Z,0.5960
2023-04-23T11:48:49.562Z,0.5013
2023-04-23T11:49:51.271Z,0.7787
2023-04-23T11:50:53.130Z,0.9060
2023-04-23T11:51:54.611Z,0.8756
2023-04-23T11:52:56.201Z,1.0708
2023-04-23T11:53:57.906Z,1.0749
2023-04-23T11:54:59.467Z,1.1652
2023-04-23T11:56:01.219Z,1.2930
2023-04-23T11:57:02.788Z,1.3457
2023-04-23T11:58:04.472Z,1.0242
2023-04-23T11:59:06.069Z,1.3852
2023-04-23T12:00:07.763Z,1.2897
2023-04-23T12:01:09.448Z,1.6446
2023-04-23T12:02:11.100Z,1.6344
2023-04-23T12:03:12.936Z,1.4789
2023-04-23T12:04:14.662Z,1.4396
2023-04-23T12:05:16.154Z,1.8404
2023-04-23T12:06:17.883Z,1.8986
2023-04-23T12:07:26.341Z,1.4869
2023-04-23T12:08:21.140Z,1.3705
2023-04-23T12:09:23.725Z,1.2251
2023-04-23T12:10:24.392Z,1.2279
2023-04-23T12:11:26.122Z,1.6074
2023-04-23T12:12:27.738Z,1.8267
2023-04-23T12:13:29.407Z,1.8072
2023-04-23T12:14:31.176Z,1.5730
2023-04-23T12:15:32.780Z,1.3475
2023-04-23T12:16:34.271Z,1.4269
2023-04-23T12:17:35.997Z,1.3955
2023-04-23T12:18:37.680Z,1.0141
2023-04-23T12:19:39.380Z,1.2104
2023-04-23T12:20:40.888Z,1.0099
2023-04-23T12:21:42.685Z,1.6083
2023-04-23T12:22:44.193Z,1.4130
2023-04-23T12:23:45.915Z,1.4927
2023-04-23T12:24:47.416Z,1.9370
2023-04-23T12:25:49.193Z,1.8520
2023-04-23T12:26:50.810Z,1.9847
2023-04-23T12:27:52.459Z,1.6656
2023-04-23T12:28:54.914Z,1.8136
2023-04-23T12:29:55.751Z,1.8390
2023-04-23T12:30:57.348Z,1.6134
2023-04-23T12:31:59.134Z,1.5839
2023-04-23T12:33:00.684Z,1.5583
2023-04-23T12:34:02.465Z,1.9212
2023-04-23T12:35:03.934Z,1.6665
2023-04-23T12:36:05.631Z,1.3531
2023-04-23T12:37:07.307Z,1.2897
2023-04-23T12:38:09.008Z,0.8944
2023-04-23T12:39:10.632Z,1.0886
2023-04-23T12:40:12.228Z,0.9749
2023-04-23T12:41:13.895Z,1.0217
2023-04-23T12:42:16.515Z,0.8044
2023-04-23T12:43:17.442Z,0.6807
2023-04-23T12:44:18.885Z,0.6906
2023-04-23T12:45:20.506Z,1.1822
2023-04-23T12:46:22.158Z,1.3521
2023-04-23T12:47:24.631Z,0.9370
2023-04-23T12:48:25.468Z,0.8375
2023-04-23T12:49:27.261Z,0.6575
2023-04-23T12:50:28.828Z,0.8263